sensor_id;sensor_type;location;lat;lon;timestamp;temperature;humidity
44069;DHT22;29738;51.234;5.484;2024-03-08T00:00:09;4.60;99.90
44069;DHT22;29738;51.234;5.484;2024-03-08T00:02:43;4.60;99.50
44069;DHT22;29738;51.234;5.484;2024-03-08T00:05:09;4.50;96.70
44069;DHT22;29738;51.234;5.484;2024-03-08T00:07:36;4.60;95.00
44069;DHT22;29738;51.234;5.484;2024-03-08T00:10:03;4.70;91.10
44069;DHT22;29738;51.234;5.484;2024-03-08T00:12:29;4.60;89.60
44069;DHT22;29738;51.234;5.484;2024-03-08T00:14:56;4.50;89.90
44069;DHT22;29738;51.234;5.484;2024-03-08T00:17:22;4.50;90.00
44069;DHT22;29738;51.234;5.484;2024-03-08T00:19:54;4.50;82.90
44069;DHT22;29738;51.234;5.484;2024-03-08T00:22:20;4.50;78.10
44069;DHT22;29738;51.234;5.484;2024-03-08T00:24:47;4.50;74.60
44069;DHT22;29738;51.234;5.484;2024-03-08T00:27:16;4.50;75.20
44069;DHT22;29738;51.234;5.484;2024-03-08T00:29:41;4.50;69.70
44069;DHT22;29738;51.234;5.484;2024-03-08T00:32:07;4.50;66.70
44069;DHT22;29738;51.234;5.484;2024-03-08T00:34:36;4.30;63.40
44069;DHT22;29738;51.234;5.484;2024-03-08T00:37:03;4.50;61.30
44069;DHT22;29738;51.234;5.484;2024-03-08T00:39:29;4.40;56.70
44069;DHT22;29738;51.234;5.484;2024-03-08T00:41:55;4.40;55.70
44069;DHT22;29738;51.234;5.484;2024-03-08T00:44:21;4.40;55.80
44069;DHT22;29738;51.234;5.484;2024-03-08T00:46:46;4.40;52.40
44069;DHT22;29738;51.234;5.484;2024-03-08T00:49:12;4.40;52.50
44069;DHT22;29738;51.234;5.484;2024-03-08T00:51:38;4.30;47.40
44069;DHT22;29738;51.234;5.484;2024-03-08T00:54:04;4.30;51.70
44069;DHT22;29738;51.234;5.484;2024-03-08T00:56:30;4.30;51.40
44069;DHT22;29738;51.234;5.484;2024-03-08T00:58:55;4.10;55.70
44069;DHT22;29738;51.234;5.484;2024-03-08T01:01:21;4.10;58.20
44069;DHT22;29738;51.234;5.484;2024-03-08T01:03:47;4.10;54.80
44069;DHT22;29738;51.234;5.484;2024-03-08T01:06:14;4.10;55.70
44069;DHT22;29738;51.234;5.484;2024-03-08T01:08:40;4.00;56.00
44069;DHT22;29738;51.234;5.484;2024-03-08T01:11:08;4.00;58.70
44069;DHT22;29738;51.234;5.484;2024-03-08T01:13:34;4.00;64.40
44069;DHT22;29738;51.234;5.484;2024-03-08T01:16:00;4.00;62.40
44069;DHT22;29738;51.234;5.484;2024-03-08T01:18:26;4.00;63.20
44069;DHT22;29738;51.234;5.484;2024-03-08T01:20:52;4.00;62.20
44069;DHT22;29738;51.234;5.484;2024-03-08T01:23:17;3.90;62.30
44069;DHT22;29738;51.234;5.484;2024-03-08T01:25:43;4.00;59.70
44069;DHT22;29738;51.234;5.484;2024-03-08T01:28:09;4.00;56.80
44069;DHT22;29738;51.234;5.484;2024-03-08T01:30:35;3.90;58.00
44069;DHT22;29738;51.234;5.484;2024-03-08T01:33:03;3.90;57.90
44069;DHT22;29738;51.234;5.484;2024-03-08T01:35:28;3.90;58.10
44069;DHT22;29738;51.234;5.484;2024-03-08T01:37:54;3.80;58.60
44069;DHT22;29738;51.234;5.484;2024-03-08T01:40:20;3.80;61.00
44069;DHT22;29738;51.234;5.484;2024-03-08T01:42:46;3.90;57.00
44069;DHT22;29738;51.234;5.484;2024-03-08T01:45:13;3.90;57.20
44069;DHT22;29738;51.234;5.484;2024-03-08T01:47:39;3.90;53.80
44069;DHT22;29738;51.234;5.484;2024-03-08T01:50:05;4.00;53.40
44069;DHT22;29738;51.234;5.484;2024-03-08T01:52:35;3.80;52.30
44069;DHT22;29738;51.234;5.484;2024-03-08T01:55:02;3.70;58.70
44069;DHT22;29738;51.234;5.484;2024-03-08T01:57:31;3.70;64.20
44069;DHT22;29738;51.234;5.484;2024-03-08T01:59:59;3.60;64.20
44069;DHT22;29738;51.234;5.484;2024-03-08T02:02:33;3.60;67.40
44069;DHT22;29738;51.234;5.484;2024-03-08T02:05:02;3.60;66.50
44069;DHT22;29738;51.234;5.484;2024-03-08T02:07:28;3.60;66.80
44069;DHT22;29738;51.234;5.484;2024-03-08T02:09:54;3.60;61.60
44069;DHT22;29738;51.234;5.484;2024-03-08T02:12:20;3.60;59.20
44069;DHT22;29738;51.234;5.484;2024-03-08T02:14:46;3.60;60.40
44069;DHT22;29738;51.234;5.484;2024-03-08T02:17:12;3.50;62.20
44069;DHT22;29738;51.234;5.484;2024-03-08T02:19:38;3.50;63.80
44069;DHT22;29738;51.234;5.484;2024-03-08T02:22:05;3.40;67.80
44069;DHT22;29738;51.234;5.484;2024-03-08T02:24:32;3.40;69.40
44069;DHT22;29738;51.234;5.484;2024-03-08T02:26:58;3.50;65.70
44069;DHT22;29738;51.234;5.484;2024-03-08T02:29:24;3.40;64.20
44069;DHT22;29738;51.234;5.484;2024-03-08T02:31:53;3.30;68.20
44069;DHT22;29738;51.234;5.484;2024-03-08T02:34:18;3.20;75.80
44069;DHT22;29738;51.234;5.484;2024-03-08T02:36:45;3.20;76.80
44069;DHT22;29738;51.234;5.484;2024-03-08T02:39:12;3.20;77.70
44069;DHT22;29738;51.234;5.484;2024-03-08T02:41:38;3.20;77.80
44069;DHT22;29738;51.234;5.484;2024-03-08T02:44:04;3.10;79.30
44069;DHT22;29738;51.234;5.484;2024-03-08T02:46:30;3.20;78.80
44069;DHT22;29738;51.234;5.484;2024-03-08T02:48:55;3.10;79.60
44069;DHT22;29738;51.234;5.484;2024-03-08T02:51:21;3.10;79.40
44069;DHT22;29738;51.234;5.484;2024-03-08T02:53:47;3.00;83.70
44069;DHT22;29738;51.234;5.484;2024-03-08T02:56:17;3.10;87.80
44069;DHT22;29738;51.234;5.484;2024-03-08T02:58:43;3.00;85.30
44069;DHT22;29738;51.234;5.484;2024-03-08T03:01:14;3.10;81.80
44069;DHT22;29738;51.234;5.484;2024-03-08T03:03:41;3.10;83.20
44069;DHT22;29738;51.234;5.484;2024-03-08T03:06:06;3.10;82.00
44069;DHT22;29738;51.234;5.484;2024-03-08T03:08:32;3.10;83.80
44069;DHT22;29738;51.234;5.484;2024-03-08T03:10:58;3.10;83.20
44069;DHT22;29738;51.234;5.484;2024-03-08T03:13:24;3.10;80.70
44069;DHT22;29738;51.234;5.484;2024-03-08T03:15:49;3.00;81.10
44069;DHT22;29738;51.234;5.484;2024-03-08T03:18:15;3.00;85.60
44069;DHT22;29738;51.234;5.484;2024-03-08T03:20:41;2.90;88.60
44069;DHT22;29738;51.234;5.484;2024-03-08T03:23:08;2.90;91.30
44069;DHT22;29738;51.234;5.484;2024-03-08T03:25:35;2.90;89.30
44069;DHT22;29738;51.234;5.484;2024-03-08T03:28:01;2.90;89.30
44069;DHT22;29738;51.234;5.484;2024-03-08T03:30:27;2.80;91.30
44069;DHT22;29738;51.234;5.484;2024-03-08T03:33:01;2.90;90.30
44069;DHT22;29738;51.234;5.484;2024-03-08T03:35:29;2.80;91.90
44069;DHT22;29738;51.234;5.484;2024-03-08T03:37:55;2.80;90.30
44069;DHT22;29738;51.234;5.484;2024-03-08T03:40:31;2.80;91.10
44069;DHT22;29738;51.234;5.484;2024-03-08T03:42:57;2.80;92.10
44069;DHT22;29738;51.234;5.484;2024-03-08T03:45:23;2.90;90.60
44069;DHT22;29738;51.234;5.484;2024-03-08T03:47:49;2.80;91.50
44069;DHT22;29738;51.234;5.484;2024-03-08T03:50:16;2.80;91.50
44069;DHT22;29738;51.234;5.484;2024-03-08T03:52:41;2.80;92.30
44069;DHT22;29738;51.234;5.484;2024-03-08T03:55:08;2.80;92.10
44069;DHT22;29738;51.234;5.484;2024-03-08T03:57:34;2.80;90.00
44069;DHT22;29738;51.234;5.484;2024-03-08T03:59:59;2.80;90.30
44069;DHT22;29738;51.234;5.484;2024-03-08T04:02:25;2.80;91.50
44069;DHT22;29738;51.234;5.484;2024-03-08T04:04:52;2.80;91.70
44069;DHT22;29738;51.234;5.484;2024-03-08T04:07:20;2.80;91.00
44069;DHT22;29738;51.234;5.484;2024-03-08T04:09:46;2.80;91.70
44069;DHT22;29738;51.234;5.484;2024-03-08T04:12:12;2.80;92.70
44069;DHT22;29738;51.234;5.484;2024-03-08T04:14:40;2.80;91.20
44069;DHT22;29738;51.234;5.484;2024-03-08T04:17:07;2.70;91.90
44069;DHT22;29738;51.234;5.484;2024-03-08T04:19:34;2.70;92.70
44069;DHT22;29738;51.234;5.484;2024-03-08T04:22:01;2.80;94.50
44069;DHT22;29738;51.234;5.484;2024-03-08T04:24:26;2.70;94.30
44069;DHT22;29738;51.234;5.484;2024-03-08T04:26:52;2.70;93.90
44069;DHT22;29738;51.234;5.484;2024-03-08T04:29:18;2.70;94.90
44069;DHT22;29738;51.234;5.484;2024-03-08T04:31:44;2.60;94.10
44069;DHT22;29738;51.234;5.484;2024-03-08T04:34:10;2.60;95.30
44069;DHT22;29738;51.234;5.484;2024-03-08T04:36:36;2.60;96.70
44069;DHT22;29738;51.234;5.484;2024-03-08T04:39:02;2.60;96.80
44069;DHT22;29738;51.234;5.484;2024-03-08T04:41:28;2.60;96.00
44069;DHT22;29738;51.234;5.484;2024-03-08T04:43:56;2.60;95.90
44069;DHT22;29738;51.234;5.484;2024-03-08T04:46:23;2.60;96.60
44069;DHT22;29738;51.234;5.484;2024-03-08T04:48:49;2.50;96.80
44069;DHT22;29738;51.234;5.484;2024-03-08T04:51:15;2.50;98.10
44069;DHT22;29738;51.234;5.484;2024-03-08T04:53:41;2.60;97.40
44069;DHT22;29738;51.234;5.484;2024-03-08T04:56:07;2.50;96.50
44069;DHT22;29738;51.234;5.484;2024-03-08T04:58:37;2.50;96.50
44069;DHT22;29738;51.234;5.484;2024-03-08T05:01:03;2.40;97.50
44069;DHT22;29738;51.234;5.484;2024-03-08T05:03:29;2.40;99.20
44069;DHT22;29738;51.234;5.484;2024-03-08T05:05:55;2.40;99.10
44069;DHT22;29738;51.234;5.484;2024-03-08T05:08:21;2.50;99.90
44069;DHT22;29738;51.234;5.484;2024-03-08T05:10:47;2.60;96.30
44069;DHT22;29738;51.234;5.484;2024-03-08T05:13:13;2.60;95.80
44069;DHT22;29738;51.234;5.484;2024-03-08T05:15:39;2.50;96.50
44069;DHT22;29738;51.234;5.484;2024-03-08T05:18:05;2.50;98.20
44069;DHT22;29738;51.234;5.484;2024-03-08T05:20:31;2.50;96.70
44069;DHT22;29738;51.234;5.484;2024-03-08T05:22:57;2.40;98.20
44069;DHT22;29738;51.234;5.484;2024-03-08T05:25:26;2.40;97.80
44069;DHT22;29738;51.234;5.484;2024-03-08T05:27:52;2.40;97.40
44069;DHT22;29738;51.234;5.484;2024-03-08T05:30:18;2.50;96.80
44069;DHT22;29738;51.234;5.484;2024-03-08T05:32:44;2.40;98.90
44069;DHT22;29738;51.234;5.484;2024-03-08T05:35:12;2.40;98.90
44069;DHT22;29738;51.234;5.484;2024-03-08T05:37:40;2.40;98.70
44069;DHT22;29738;51.234;5.484;2024-03-08T05:40:06;2.40;97.30
44069;DHT22;29738;51.234;5.484;2024-03-08T05:42:36;2.50;97.10
44069;DHT22;29738;51.234;5.484;2024-03-08T05:45:03;2.50;95.70
44069;DHT22;29738;51.234;5.484;2024-03-08T05:47:29;2.40;96.30
44069;DHT22;29738;51.234;5.484;2024-03-08T05:49:54;2.40;98.20
44069;DHT22;29738;51.234;5.484;2024-03-08T05:52:20;2.30;98.20
44069;DHT22;29738;51.234;5.484;2024-03-08T05:54:46;2.40;97.90
44069;DHT22;29738;51.234;5.484;2024-03-08T05:57:12;2.40;97.10
44069;DHT22;29738;51.234;5.484;2024-03-08T05:59:39;2.30;97.90
44069;DHT22;29738;51.234;5.484;2024-03-08T06:02:05;2.30;98.80
44069;DHT22;29738;51.234;5.484;2024-03-08T06:04:31;2.30;98.80
44069;DHT22;29738;51.234;5.484;2024-03-08T06:06:57;2.30;99.90
44069;DHT22;29738;51.234;5.484;2024-03-08T06:09:24;2.30;98.40
44069;DHT22;29738;51.234;5.484;2024-03-08T06:11:51;2.40;97.00
44069;DHT22;29738;51.234;5.484;2024-03-08T06:14:17;2.30;98.20
44069;DHT22;29738;51.234;5.484;2024-03-08T06:16:47;2.30;99.00
44069;DHT22;29738;51.234;5.484;2024-03-08T06:19:15;2.30;99.00
44069;DHT22;29738;51.234;5.484;2024-03-08T06:21:41;2.30;98.70
44069;DHT22;29738;51.234;5.484;2024-03-08T06:24:07;2.30;99.40
44069;DHT22;29738;51.234;5.484;2024-03-08T06:26:32;2.30;99.90
44069;DHT22;29738;51.234;5.484;2024-03-08T06:28:58;2.30;99.30
44069;DHT22;29738;51.234;5.484;2024-03-08T06:31:24;2.40;98.10
44069;DHT22;29738;51.234;5.484;2024-03-08T06:33:50;2.40;97.90
44069;DHT22;29738;51.234;5.484;2024-03-08T06:36:16;2.50;97.40
44069;DHT22;29738;51.234;5.484;2024-03-08T06:38:48;2.50;95.30
44069;DHT22;29738;51.234;5.484;2024-03-08T06:41:14;2.50;94.70
44069;DHT22;29738;51.234;5.484;2024-03-08T06:43:46;2.50;95.30
44069;DHT22;29738;51.234;5.484;2024-03-08T06:46:15;2.50;95.20
44069;DHT22;29738;51.234;5.484;2024-03-08T06:48:41;2.60;94.80
44069;DHT22;29738;51.234;5.484;2024-03-08T06:51:07;2.60;94.20
44069;DHT22;29738;51.234;5.484;2024-03-08T06:53:33;2.60;92.40
44069;DHT22;29738;51.234;5.484;2024-03-08T06:56:01;2.80;99.70
44069;DHT22;29738;51.234;5.484;2024-03-08T06:58:27;2.90;95.10
44069;DHT22;29738;51.234;5.484;2024-03-08T07:00:53;2.70;90.30
44069;DHT22;29738;51.234;5.484;2024-03-08T07:03:19;2.80;89.70
44069;DHT22;29738;51.234;5.484;2024-03-08T07:05:47;2.80;90.10
44069;DHT22;29738;51.234;5.484;2024-03-08T07:08:13;2.80;93.20
44069;DHT22;29738;51.234;5.484;2024-03-08T07:10:39;2.90;90.20
44069;DHT22;29738;51.234;5.484;2024-03-08T07:13:08;2.90;89.80
44069;DHT22;29738;51.234;5.484;2024-03-08T07:15:34;2.90;90.20
44069;DHT22;29738;51.234;5.484;2024-03-08T07:18:00;2.90;88.10
44069;DHT22;29738;51.234;5.484;2024-03-08T07:20:26;2.90;87.50
44069;DHT22;29738;51.234;5.484;2024-03-08T07:22:54;3.00;87.10
44069;DHT22;29738;51.234;5.484;2024-03-08T07:25:20;3.00;88.20
44069;DHT22;29738;51.234;5.484;2024-03-08T07:27:54;3.00;90.00
44069;DHT22;29738;51.234;5.484;2024-03-08T07:30:26;3.10;86.20
44069;DHT22;29738;51.234;5.484;2024-03-08T07:33:11;3.20;88.80
44069;DHT22;29738;51.234;5.484;2024-03-08T07:35:38;3.20;83.10
44069;DHT22;29738;51.234;5.484;2024-03-08T07:38:04;3.30;81.60
44069;DHT22;29738;51.234;5.484;2024-03-08T07:40:31;3.30;85.70
44069;DHT22;29738;51.234;5.484;2024-03-08T07:42:58;3.40;82.80
44069;DHT22;29738;51.234;5.484;2024-03-08T07:45:24;3.50;77.30
44069;DHT22;29738;51.234;5.484;2024-03-08T07:47:49;3.50;74.60
44069;DHT22;29738;51.234;5.484;2024-03-08T07:50:16;3.50;79.10
44069;DHT22;29738;51.234;5.484;2024-03-08T07:52:42;3.60;71.10
44069;DHT22;29738;51.234;5.484;2024-03-08T07:55:09;3.60;69.40
44069;DHT22;29738;51.234;5.484;2024-03-08T07:57:35;3.70;64.40
44069;DHT22;29738;51.234;5.484;2024-03-08T08:00:07;3.70;69.10
44069;DHT22;29738;51.234;5.484;2024-03-08T08:02:34;3.90;63.60
44069;DHT22;29738;51.234;5.484;2024-03-08T08:05:01;3.90;56.30
44069;DHT22;29738;51.234;5.484;2024-03-08T08:07:26;4.00;53.20
44069;DHT22;29738;51.234;5.484;2024-03-08T08:09:53;3.90;54.40
44069;DHT22;29738;51.234;5.484;2024-03-08T08:12:19;4.00;49.20
44069;DHT22;29738;51.234;5.484;2024-03-08T08:14:48;4.10;51.70
44069;DHT22;29738;51.234;5.484;2024-03-08T08:17:13;4.20;50.20
44069;DHT22;29738;51.234;5.484;2024-03-08T08:19:41;4.30;45.40
44069;DHT22;29738;51.234;5.484;2024-03-08T08:22:07;4.40;45.80
44069;DHT22;29738;51.234;5.484;2024-03-08T08:24:34;4.30;40.80
44069;DHT22;29738;51.234;5.484;2024-03-08T08:27:02;4.40;45.00
44069;DHT22;29738;51.234;5.484;2024-03-08T08:29:28;4.50;34.00
44069;DHT22;29738;51.234;5.484;2024-03-08T08:31:54;4.70;31.60
44069;DHT22;29738;51.234;5.484;2024-03-08T08:34:19;4.70;25.10
44069;DHT22;29738;51.234;5.484;2024-03-08T08:36:49;4.80;39.80
44069;DHT22;29738;51.234;5.484;2024-03-08T08:39:15;4.80;26.90
44069;DHT22;29738;51.234;5.484;2024-03-08T08:41:42;4.90;24.70
44069;DHT22;29738;51.234;5.484;2024-03-08T08:44:08;5.10;22.40
44069;DHT22;29738;51.234;5.484;2024-03-08T08:46:38;5.00;16.20
44069;DHT22;29738;51.234;5.484;2024-03-08T08:49:04;5.20;16.20
44069;DHT22;29738;51.234;5.484;2024-03-08T08:51:31;5.40;3.80
44069;DHT22;29738;51.234;5.484;2024-03-08T08:53:59;5.40;1.00
44069;DHT22;29738;51.234;5.484;2024-03-08T08:56:28;5.40;5.90
44069;DHT22;29738;51.234;5.484;2024-03-08T08:58:56;5.60;6.60
44069;DHT22;29738;51.234;5.484;2024-03-08T09:01:23;5.70;1.00
44069;DHT22;29738;51.234;5.484;2024-03-08T09:03:49;5.60;1.00
44069;DHT22;29738;51.234;5.484;2024-03-08T09:06:16;5.70;1.00
44069;DHT22;29738;51.234;5.484;2024-03-08T09:08:42;5.80;1.00
44069;DHT22;29738;51.234;5.484;2024-03-08T09:11:09;5.90;1.00
44069;DHT22;29738;51.234;5.484;2024-03-08T09:13:35;6.00;1.00
44069;DHT22;29738;51.234;5.484;2024-03-08T09:16:02;6.00;1.00
44069;DHT22;29738;51.234;5.484;2024-03-08T09:18:30;6.10;1.00
44069;DHT22;29738;51.234;5.484;2024-03-08T09:20:59;6.20;1.00
44069;DHT22;29738;51.234;5.484;2024-03-08T09:23:25;6.20;1.00
44069;DHT22;29738;51.234;5.484;2024-03-08T09:25:56;6.30;1.00
44069;DHT22;29738;51.234;5.484;2024-03-08T09:28:23;6.40;1.00
44069;DHT22;29738;51.234;5.484;2024-03-08T09:30:49;6.50;1.00
44069;DHT22;29738;51.234;5.484;2024-03-08T09:33:14;6.60;1.00
44069;DHT22;29738;51.234;5.484;2024-03-08T09:35:45;6.70;1.00
44069;DHT22;29738;51.234;5.484;2024-03-08T09:38:12;6.70;1.00
44069;DHT22;29738;51.234;5.484;2024-03-08T09:40:41;6.70;1.00
44069;DHT22;29738;51.234;5.484;2024-03-08T09:43:08;6.80;1.00
44069;DHT22;29738;51.234;5.484;2024-03-08T09:45:38;6.90;1.00
44069;DHT22;29738;51.234;5.484;2024-03-08T09:48:10;6.80;1.00
44069;DHT22;29738;51.234;5.484;2024-03-08T09:50:42;7.00;1.00
44069;DHT22;29738;51.234;5.484;2024-03-08T09:53:08;7.10;1.00
44069;DHT22;29738;51.234;5.484;2024-03-08T09:55:38;7.30;1.00
44069;DHT22;29738;51.234;5.484;2024-03-08T09:58:08;7.30;1.00
44069;DHT22;29738;51.234;5.484;2024-03-08T10:00:54;7.30;1.00
44069;DHT22;29738;51.234;5.484;2024-03-08T10:03:23;7.50;1.00
44069;DHT22;29738;51.234;5.484;2024-03-08T10:05:48;7.60;1.00
44069;DHT22;29738;51.234;5.484;2024-03-08T10:08:14;7.60;1.00
44069;DHT22;29738;51.234;5.484;2024-03-08T10:10:42;7.60;1.00
44069;DHT22;29738;51.234;5.484;2024-03-08T10:13:09;7.50;1.00
44069;DHT22;29738;51.234;5.484;2024-03-08T10:15:36;7.50;1.00
44069;DHT22;29738;51.234;5.484;2024-03-08T10:18:07;7.50;1.00
44069;DHT22;29738;51.234;5.484;2024-03-08T10:20:33;7.60;1.00
44069;DHT22;29738;51.234;5.484;2024-03-08T10:23:00;7.70;1.00
44069;DHT22;29738;51.234;5.484;2024-03-08T10:25:26;7.70;1.00
44069;DHT22;29738;51.234;5.484;2024-03-08T10:27:52;7.70;1.00
44069;DHT22;29738;51.234;5.484;2024-03-08T10:30:19;7.80;1.00
44069;DHT22;29738;51.234;5.484;2024-03-08T10:32:46;7.80;1.00
44069;DHT22;29738;51.234;5.484;2024-03-08T10:35:12;8.10;1.00
44069;DHT22;29738;51.234;5.484;2024-03-08T10:37:48;8.00;1.00
44069;DHT22;29738;51.234;5.484;2024-03-08T10:40:19;8.10;1.00
44069;DHT22;29738;51.234;5.484;2024-03-08T10:42:59;8.10;1.00
44069;DHT22;29738;51.234;5.484;2024-03-08T10:45:53;8.20;1.00
44069;DHT22;29738;51.234;5.484;2024-03-08T10:48:38;8.20;1.00
44069;DHT22;29738;51.234;5.484;2024-03-08T10:51:07;8.10;1.00
44069;DHT22;29738;51.234;5.484;2024-03-08T10:53:36;8.30;1.00
44069;DHT22;29738;51.234;5.484;2024-03-08T10:56:05;8.50;1.00
44069;DHT22;29738;51.234;5.484;2024-03-08T10:58:31;8.60;1.00
44069;DHT22;29738;51.234;5.484;2024-03-08T11:00:57;8.80;1.00
44069;DHT22;29738;51.234;5.484;2024-03-08T11:03:44;9.00;1.00
44069;DHT22;29738;51.234;5.484;2024-03-08T11:08:49;9.10;1.00
44069;DHT22;29738;51.234;5.484;2024-03-08T11:11:27;9.00;1.00
44069;DHT22;29738;51.234;5.484;2024-03-08T11:13:53;9.10;1.00
44069;DHT22;29738;51.234;5.484;2024-03-08T11:19:01;9.10;99.90
44069;DHT22;29738;51.234;5.484;2024-03-08T11:21:33;9.00;99.90
44069;DHT22;29738;51.234;5.484;2024-03-08T11:24:06;9.10;99.90
44069;DHT22;29738;51.234;5.484;2024-03-08T11:26:33;9.20;1.00
44069;DHT22;29738;51.234;5.484;2024-03-08T11:32:07;9.50;99.90
44069;DHT22;29738;51.234;5.484;2024-03-08T11:34:33;9.70;99.90
44069;DHT22;29738;51.234;5.484;2024-03-08T11:36:59;9.70;99.90
44069;DHT22;29738;51.234;5.484;2024-03-08T11:39:26;9.70;99.90
44069;DHT22;29738;51.234;5.484;2024-03-08T11:41:51;9.70;99.90
44069;DHT22;29738;51.234;5.484;2024-03-08T11:44:17;9.70;99.90
44069;DHT22;29738;51.234;5.484;2024-03-08T11:46:43;9.70;99.90
44069;DHT22;29738;51.234;5.484;2024-03-08T11:49:14;10.00;99.90
44069;DHT22;29738;51.234;5.484;2024-03-08T11:51:40;10.20;99.90
44069;DHT22;29738;51.234;5.484;2024-03-08T11:54:10;10.30;99.90
44069;DHT22;29738;51.234;5.484;2024-03-08T11:56:37;10.00;99.90
44069;DHT22;29738;51.234;5.484;2024-03-08T11:59:03;10.10;99.90
44069;DHT22;29738;51.234;5.484;2024-03-08T12:01:28;10.30;99.90
44069;DHT22;29738;51.234;5.484;2024-03-08T12:03:56;10.30;99.90
44069;DHT22;29738;51.234;5.484;2024-03-08T12:06:26;10.50;99.90
44069;DHT22;29738;51.234;5.484;2024-03-08T12:08:52;10.60;99.90
44069;DHT22;29738;51.234;5.484;2024-03-08T12:11:22;10.60;99.90
44069;DHT22;29738;51.234;5.484;2024-03-08T12:13:49;11.10;99.90
44069;DHT22;29738;51.234;5.484;2024-03-08T12:16:18;11.40;99.90
44069;DHT22;29738;51.234;5.484;2024-03-08T12:18:44;11.50;99.90
44069;DHT22;29738;51.234;5.484;2024-03-08T12:21:12;11.40;99.90
44069;DHT22;29738;51.234;5.484;2024-03-08T12:23:45;11.40;99.90
44069;DHT22;29738;51.234;5.484;2024-03-08T12:26:12;11.60;99.90
44069;DHT22;29738;51.234;5.484;2024-03-08T12:28:40;11.90;99.90
44069;DHT22;29738;51.234;5.484;2024-03-08T12:31:07;12.30;99.90
44069;DHT22;29738;51.234;5.484;2024-03-08T12:33:46;12.20;99.90
44069;DHT22;29738;51.234;5.484;2024-03-08T12:36:15;12.40;99.90
44069;DHT22;29738;51.234;5.484;2024-03-08T12:38:44;12.10;99.90
44069;DHT22;29738;51.234;5.484;2024-03-08T12:41:16;12.10;99.90
44069;DHT22;29738;51.234;5.484;2024-03-08T12:43:45;12.20;99.90
44069;DHT22;29738;51.234;5.484;2024-03-08T12:46:23;12.70;99.90
44069;DHT22;29738;51.234;5.484;2024-03-08T12:48:52;13.40;99.90
44069;DHT22;29738;51.234;5.484;2024-03-08T12:51:20;14.00;99.90
44069;DHT22;29738;51.234;5.484;2024-03-08T12:53:46;13.80;99.90
44069;DHT22;29738;51.234;5.484;2024-03-08T12:56:14;13.80;99.90
44069;DHT22;29738;51.234;5.484;2024-03-08T12:58:41;13.70;99.90
44069;DHT22;29738;51.234;5.484;2024-03-08T13:01:08;13.50;99.90
44069;DHT22;29738;51.234;5.484;2024-03-08T13:03:34;13.60;99.90
44069;DHT22;29738;51.234;5.484;2024-03-08T13:06:05;13.40;99.90
44069;DHT22;29738;51.234;5.484;2024-03-08T13:08:37;13.30;99.90
44069;DHT22;29738;51.234;5.484;2024-03-08T13:11:07;13.40;99.90
44069;DHT22;29738;51.234;5.484;2024-03-08T13:13:33;13.40;99.90
44069;DHT22;29738;51.234;5.484;2024-03-08T13:16:02;13.60;99.90
44069;DHT22;29738;51.234;5.484;2024-03-08T13:18:28;14.00;99.90
44069;DHT22;29738;51.234;5.484;2024-03-08T13:20:55;14.30;99.90
44069;DHT22;29738;51.234;5.484;2024-03-08T13:23:20;14.60;99.90
44069;DHT22;29738;51.234;5.484;2024-03-08T13:25:46;14.40;99.90
44069;DHT22;29738;51.234;5.484;2024-03-08T13:28:15;14.00;99.90
44069;DHT22;29738;51.234;5.484;2024-03-08T13:30:42;14.20;99.90
44069;DHT22;29738;51.234;5.484;2024-03-08T13:33:09;14.60;99.90
44069;DHT22;29738;51.234;5.484;2024-03-08T13:35:35;15.00;99.90
44069;DHT22;29738;51.234;5.484;2024-03-08T13:38:03;15.50;99.90
44069;DHT22;29738;51.234;5.484;2024-03-08T13:40:30;15.10;46.90
44069;DHT22;29738;51.234;5.484;2024-03-08T13:42:56;15.30;58.00
44069;DHT22;29738;51.234;5.484;2024-03-08T13:45:22;15.10;70.70
44069;DHT22;29738;51.234;5.484;2024-03-08T13:47:49;15.30;43.20
44069;DHT22;29738;51.234;5.484;2024-03-08T13:50:17;15.20;20.00
44069;DHT22;29738;51.234;5.484;2024-03-08T13:52:47;15.40;45.30
44069;DHT22;29738;51.234;5.484;2024-03-08T13:55:17;15.10;1.00
44069;DHT22;29738;51.234;5.484;2024-03-08T13:57:43;14.70;22.40
44069;DHT22;29738;51.234;5.484;2024-03-08T14:00:11;14.60;19.60
44069;DHT22;29738;51.234;5.484;2024-03-08T14:02:38;14.70;1.00
44069;DHT22;29738;51.234;5.484;2024-03-08T14:05:06;15.00;1.00
44069;DHT22;29738;51.234;5.484;2024-03-08T14:07:35;14.90;9.10
44069;DHT22;29738;51.234;5.484;2024-03-08T14:10:00;15.00;1.00
44069;DHT22;29738;51.234;5.484;2024-03-08T14:12:26;15.00;1.00
44069;DHT22;29738;51.234;5.484;2024-03-08T14:14:56;15.10;1.00
44069;DHT22;29738;51.234;5.484;2024-03-08T14:17:29;15.30;1.00
44069;DHT22;29738;51.234;5.484;2024-03-08T14:19:56;15.90;1.00
44069;DHT22;29738;51.234;5.484;2024-03-08T14:22:22;16.20;1.00
44069;DHT22;29738;51.234;5.484;2024-03-08T14:24:49;15.50;1.00
44069;DHT22;29738;51.234;5.484;2024-03-08T14:27:16;15.40;1.00
44069;DHT22;29738;51.234;5.484;2024-03-08T14:29:44;15.60;1.00
44069;DHT22;29738;51.234;5.484;2024-03-08T14:32:09;15.60;1.00
44069;DHT22;29738;51.234;5.484;2024-03-08T14:34:36;15.50;1.00
44069;DHT22;29738;51.234;5.484;2024-03-08T14:37:02;15.60;1.00
44069;DHT22;29738;51.234;5.484;2024-03-08T14:39:31;15.60;1.00
44069;DHT22;29738;51.234;5.484;2024-03-08T14:41:59;15.70;1.00
44069;DHT22;29738;51.234;5.484;2024-03-08T14:44:25;16.00;1.00
44069;DHT22;29738;51.234;5.484;2024-03-08T14:47:00;16.10;1.00
44069;DHT22;29738;51.234;5.484;2024-03-08T14:49:27;15.80;1.00
44069;DHT22;29738;51.234;5.484;2024-03-08T14:51:55;16.20;1.00
44069;DHT22;29738;51.234;5.484;2024-03-08T14:54:23;16.20;99.90
44069;DHT22;29738;51.234;5.484;2024-03-08T14:56:49;16.10;99.90
44069;DHT22;29738;51.234;5.484;2024-03-08T14:59:18;15.70;1.00
44069;DHT22;29738;51.234;5.484;2024-03-08T15:01:45;15.80;99.90
44069;DHT22;29738;51.234;5.484;2024-03-08T15:04:11;15.60;99.90
44069;DHT22;29738;51.234;5.484;2024-03-08T15:06:40;15.70;99.90
44069;DHT22;29738;51.234;5.484;2024-03-08T15:09:08;15.90;99.90
44069;DHT22;29738;51.234;5.484;2024-03-08T15:11:47;15.70;99.90
44069;DHT22;29738;51.234;5.484;2024-03-08T15:14:15;15.60;99.90
44069;DHT22;29738;51.234;5.484;2024-03-08T15:16:48;15.10;99.90
44069;DHT22;29738;51.234;5.484;2024-03-08T15:19:14;15.30;99.90
44069;DHT22;29738;51.234;5.484;2024-03-08T15:21:41;15.30;99.90
44069;DHT22;29738;51.234;5.484;2024-03-08T15:24:09;15.30;99.90
44069;DHT22;29738;51.234;5.484;2024-03-08T15:26:41;15.80;99.90
44069;DHT22;29738;51.234;5.484;2024-03-08T15:29:08;15.50;99.90
44069;DHT22;29738;51.234;5.484;2024-03-08T15:31:37;15.50;99.90
44069;DHT22;29738;51.234;5.484;2024-03-08T15:34:03;16.10;99.90
44069;DHT22;29738;51.234;5.484;2024-03-08T15:36:32;16.50;99.90
44069;DHT22;29738;51.234;5.484;2024-03-08T15:38:59;16.50;99.90
44069;DHT22;29738;51.234;5.484;2024-03-08T15:41:25;16.50;99.90
44069;DHT22;29738;51.234;5.484;2024-03-08T15:43:52;16.20;99.90
44069;DHT22;29738;51.234;5.484;2024-03-08T15:46:18;16.00;99.90
44069;DHT22;29738;51.234;5.484;2024-03-08T15:48:48;16.40;99.90
44069;DHT22;29738;51.234;5.484;2024-03-08T15:51:15;15.70;99.90
44069;DHT22;29738;51.234;5.484;2024-03-08T15:53:43;15.10;99.90